Time;durP1;ratioP1;P1;durP2;ratioP2;P2;SDS_P1;SDS_P2;PMS_P1;PMS_P2;Temp;Humidity;BMP_temperature;BMP_pressure;BME280_temperature;BME280_humidity;BME280_pressure;Samples;Min_cycle;Max_cycle;Signal;HPM_P1;HPM_P2
2023/09/22 00:01:20;;;;;;;37.17;14.80;;;24.30;99.90;;;;;;4916295;29;20478;-89
2023/09/22 00:03:47;;;;;;;33.38;15.60;;;24.30;99.90;;;;;;4916432;29;20100;-87
2023/09/22 00:06:15;;;;;;;28.10;14.55;;;24.40;99.90;;;;;;4916473;29;20038;-86
2023/09/22 00:08:41;;;;;;;37.63;15.02;;;24.30;99.90;;;;;;4915926;29;20434;-86
2023/09/22 00:11:08;;;;;;;40.70;14.77;;;24.40;99.90;;;;;;4916146;29;20032;-86
2023/09/22 00:13:35;;;;;;;33.35;15.13;;;24.30;99.90;;;;;;4918495;29;20075;-88
2023/09/22 00:16:03;;;;;;;37.92;14.35;;;24.30;99.90;;;;;;4919607;29;20122;-87
2023/09/22 00:18:29;;;;;;;40.03;14.95;;;24.30;99.90;;;;;;4919214;29;20119;-88
2023/09/22 00:20:56;;;;;;;34.80;15.55;;;24.30;99.90;;;;;;4919481;29;20073;-87
2023/09/22 00:23:22;;;;;;;40.90;15.43;;;24.30;99.90;;;;;;4919410;29;20165;-89
2023/09/22 00:25:49;;;;;;;39.63;14.70;;;24.30;99.90;;;;;;4919491;29;20071;-88
2023/09/22 00:28:15;;;;;;;37.50;15.13;;;24.30;99.90;;;;;;4919293;29;20028;-87
2023/09/22 00:30:42;;;;;;;30.13;13.13;;;24.30;99.90;;;;;;4919038;29;20184;-87
2023/09/22 00:33:09;;;;;;;31.77;14.15;;;24.30;99.90;;;;;;4934992;29;20020;-87
2023/09/22 00:35:35;;;;;;;32.90;14.73;;;24.20;99.90;;;;;;4919205;29;20028;-88
2023/09/22 00:38:06;;;;;;;31.13;13.32;;;24.30;99.90;;;;;;4919207;29;20029;-87
2023/09/22 00:40:36;;;;;;;32.35;13.38;;;24.30;99.90;;;;;;4919056;29;20048;-89
2023/09/22 00:43:11;;;;;;;28.67;13.23;;;24.30;99.90;;;;;;4919061;29;20135;-87
2023/09/22 00:45:46;;;;;;;31.75;13.70;;;24.20;99.90;;;;;;4918722;29;20064;-89
2023/09/22 00:48:34;;;;;;;36.90;14.35;;;24.30;99.90;;;;;;4917912;29;20481;-88
2023/09/22 00:51:04;;;;;;;36.70;14.07;;;24.30;99.90;;;;;;4918855;29;20044;-87
2023/09/22 00:53:40;;;;;;;26.00;14.40;;;24.30;99.90;;;;;;4919401;29;20032;-88
2023/09/22 00:56:08;;;;;;;42.85;15.43;;;24.30;99.90;;;;;;4918668;29;20040;-88
2023/09/22 00:58:36;;;;;;;32.05;13.23;;;24.30;99.90;;;;;;4902967;29;20024;-86
2023/09/22 01:01:04;;;;;;;35.47;15.45;;;24.20;99.90;;;;;;4918636;29;20048;-86
2023/09/22 01:03:30;;;;;;;32.53;13.30;;;24.30;99.90;;;;;;4902755;29;20028;-87
2023/09/22 01:05:59;;;;;;;30.83;13.07;;;24.30;99.90;;;;;;4919581;29;20111;-87
2023/09/22 01:08:25;;;;;;;38.90;14.70;;;24.30;99.90;;;;;;4902734;29;20048;-86
2023/09/22 01:10:52;;;;;;;41.33;14.90;;;24.30;99.90;;;;;;4918619;29;20043;-88
2023/09/22 01:13:19;;;;;;;31.98;14.95;;;24.30;99.90;;;;;;4902720;29;20024;-86
2023/09/22 01:15:45;;;;;;;28.63;14.32;;;24.20;99.90;;;;;;4918554;29;20042;-86
2023/09/22 01:18:15;;;;;;;26.38;13.45;;;24.30;99.90;;;;;;4902775;29;20028;-88
2023/09/22 01:20:45;;;;;;;33.25;14.05;;;24.30;99.90;;;;;;4902774;29;20040;-87
2023/09/22 01:23:13;;;;;;;35.97;14.02;;;24.30;99.90;;;;;;4918313;29;20083;-87
2023/09/22 01:25:46;;;;;;;38.40;14.32;;;24.30;99.90;;;;;;4902647;29;20028;-88
2023/09/22 01:28:14;;;;;;;31.25;14.95;;;24.20;99.90;;;;;;4918220;29;20204;-87
2023/09/22 01:30:42;;;;;;;30.70;14.15;;;24.30;99.90;;;;;;4914837;29;20560;-86
2023/09/22 01:33:09;;;;;;;33.90;15.32;;;24.30;99.90;;;;;;4923275;29;20078;-87
2023/09/22 01:35:37;;;;;;;28.55;14.02;;;24.30;99.90;;;;;;4918098;29;20028;-89
2023/09/22 01:38:24;;;;;;;34.35;15.82;;;24.30;99.90;;;;;;4918073;29;20047;-88
2023/09/22 01:40:52;;;;;;;37.72;15.05;;;24.30;99.90;;;;;;4918053;29;20044;-87
2023/09/22 01:43:18;;;;;;;27.83;13.93;;;24.30;99.90;;;;;;4917996;29;20020;-87
2023/09/22 01:45:45;;;;;;;37.00;14.70;;;24.30;99.90;;;;;;4918176;29;20039;-87
2023/09/22 01:48:11;;;;;;;39.80;16.08;;;24.30;99.90;;;;;;4917804;29;20508;-87
2023/09/22 01:50:40;;;;;;;32.15;14.57;;;24.30;99.90;;;;;;4917897;29;20063;-87
2023/09/22 01:53:12;;;;;;;42.67;15.90;;;24.30;99.90;;;;;;4918016;29;20025;-87
2023/09/22 01:55:40;;;;;;;34.30;15.18;;;24.30;99.90;;;;;;4917948;29;20067;-87
2023/09/22 01:58:11;;;;;;;34.05;14.02;;;24.30;99.90;;;;;;4917711;29;20119;-87
2023/09/22 02:00:41;;;;;;;31.15;14.65;;;24.30;99.90;;;;;;4917699;29;20044;-87
2023/09/22 02:03:08;;;;;;;42.78;16.30;;;24.20;99.90;;;;;;4917430;29;20486;-88
2023/09/22 02:05:35;;;;;;;36.72;15.63;;;24.30;99.90;;;;;;4917544;29;20040;-89
2023/09/22 02:08:01;;;;;;;34.88;14.98;;;24.30;99.90;;;;;;4917355;29;20047;-87
2023/09/22 02:10:28;;;;;;;37.50;14.45;;;24.20;99.90;;;;;;4917358;29;20039;-87
2023/09/22 02:12:54;;;;;;;39.42;15.15;;;24.20;99.90;;;;;;4917237;29;20028;-87
2023/09/22 02:15:21;;;;;;;43.40;15.23;;;24.20;99.90;;;;;;4917286;29;20024;-86
2023/09/22 02:17:51;;;;;;;41.33;15.48;;;24.20;99.90;;;;;;4917433;29;20103;-88
2023/09/22 02:20:21;;;;;;;39.40;14.55;;;24.20;99.90;;;;;;4917288;29;20040;-87
2023/09/22 02:22:56;;;;;;;36.67;15.75;;;24.20;99.90;;;;;;4917212;29;20115;-89
2023/09/22 02:25:24;;;;;;;44.05;15.32;;;24.20;99.90;;;;;;4917254;29;20060;-88
2023/09/22 02:27:54;;;;;;;40.42;14.95;;;24.20;99.90;;;;;;4917078;29;20422;-87
2023/09/22 02:30:21;;;;;;;40.25;14.60;;;24.20;99.90;;;;;;4917009;29;20044;-87
2023/09/22 02:32:49;;;;;;;34.45;15.95;;;24.20;99.90;;;;;;4917214;29;20474;-89
2023/09/22 02:35:23;;;;;;;38.70;14.18;;;24.20;99.90;;;;;;4916478;29;20083;-87
2023/09/22 02:37:53;;;;;;;;;;;24.20;99.90;;;;;;4917258;29;20032;-87
2023/09/22 02:40:19;;;;;;;43.78;15.30;;;24.20;99.90;;;;;;4916969;29;20013;-87
2023/09/22 02:42:46;;;;;;;36.83;15.77;;;24.20;99.90;;;;;;4916972;29;20454;-87
2023/09/22 02:45:15;;;;;;;41.22;15.32;;;24.20;99.90;;;;;;4919961;29;20094;-87
2023/09/22 02:47:42;;;;;;;38.08;15.38;;;24.20;99.90;;;;;;4919998;29;20028;-88
2023/09/22 02:50:15;;;;;;;45.08;15.63;;;24.20;99.90;;;;;;4936337;29;20035;-87
2023/09/22 02:52:45;;;;;;;43.40;15.45;;;24.20;99.90;;;;;;4937351;29;20032;-92
2023/09/22 02:55:21;;;;;;;35.08;14.43;;;24.20;99.90;;;;;;4924450;29;20036;-91
2023/09/22 02:57:48;;;;;;;40.45;15.40;;;24.20;99.90;;;;;;4911376;29;20028;-90
2023/09/22 03:00:17;;;;;;;37.40;16.23;;;24.20;99.90;;;;;;4926704;29;20517;-91
2023/09/22 03:02:53;;;;;;;44.53;15.63;;;24.20;99.90;;;;;;4924263;29;20032;-90
2023/09/22 03:05:30;;;;;;;43.65;16.23;;;24.20;99.90;;;;;;4941132;29;20028;-89
2023/09/22 03:07:58;;;;;;;45.47;15.63;;;24.20;99.90;;;;;;4961202;29;20652;-89
2023/09/22 03:10:25;;;;;;;31.48;15.13;;;24.20;99.90;;;;;;4941305;29;20118;-88
2023/09/22 03:12:53;;;;;;;34.63;14.35;;;24.20;99.90;;;;;;4939427;29;20050;-89
2023/09/22 03:15:20;;;;;;;41.30;14.75;;;24.20;99.90;;;;;;4939954;29;20123;-89
2023/09/22 03:17:51;;;;;;;35.70;14.07;;;24.20;99.90;;;;;;4938356;29;20098;-89
2023/09/22 03:20:18;;;;;;;43.28;14.73;;;24.20;99.90;;;;;;4954073;29;20475;-86
2023/09/22 03:22:51;;;;;;;43.30;15.27;;;24.20;99.90;;;;;;4937801;29;20114;-87
2023/09/22 03:25:19;;;;;;;36.58;13.98;;;24.20;99.90;;;;;;4937687;29;20504;-85
2023/09/22 03:27:46;;;;;;;40.13;14.48;;;24.10;99.90;;;;;;4937778;29;20027;-85
2023/09/22 03:30:22;;;;;;;32.22;13.40;;;24.10;99.90;;;;;;4937111;29;20416;-86
2023/09/22 03:32:52;;;;;;;35.75;13.50;;;24.10;99.90;;;;;;4937523;29;20427;-87
2023/09/22 03:35:23;;;;;;;32.17;14.23;;;24.10;99.90;;;;;;4937526;29;20047;-86
2023/09/22 03:37:55;;;;;;;34.33;13.80;;;24.00;99.90;;;;;;4937406;29;20039;-85
2023/09/22 03:40:32;;;;;;;31.60;14.00;;;24.10;99.90;;;;;;4937835;29;20050;-84
2023/09/22 03:43:05;;;;;;;43.35;13.85;;;24.00;99.90;;;;;;4937930;29;20055;-86
2023/09/22 03:45:39;;;;;;;29.58;12.27;;;24.00;99.90;;;;;;4927544;29;20078;-87
2023/09/22 03:48:09;;;;;;;32.97;13.05;;;24.00;99.90;;;;;;4937190;29;20028;-87
2023/09/22 03:50:36;;;;;;;37.35;13.70;;;24.10;99.90;;;;;;4939046;29;20115;-88
2023/09/22 03:53:03;;;;;;;34.55;12.48;;;24.00;99.90;;;;;;4938508;29;20118;-85
2023/09/22 03:55:31;;;;;;;35.83;13.82;;;24.00;99.90;;;;;;4938832;29;20031;-86
2023/09/22 03:57:58;;;;;;;31.50;11.73;;;24.00;99.90;;;;;;4939433;29;20119;-87
2023/09/22 04:00:30;;;;;;;39.85;13.02;;;24.10;99.90;;;;;;4938413;29;20040;-86
2023/09/22 04:02:57;;;;;;;26.77;11.77;;;24.10;99.90;;;;;;4938577;29;20023;-86
2023/09/22 04:05:23;;;;;;;33.08;11.50;;;24.00;99.90;;;;;;4938839;29;20042;-86
2023/09/22 04:07:51;;;;;;;28.42;12.57;;;24.00;99.90;;;;;;4938614;29;20059;-86
2023/09/22 04:10:20;;;;;;;28.95;11.75;;;24.00;99.90;;;;;;4938445;29;20493;-86
2023/09/22 04:12:51;;;;;;;31.98;11.73;;;24.00;99.90;;;;;;4922523;29;20544;-85
2023/09/22 04:15:19;;;;;;;31.67;12.23;;;24.00;99.90;;;;;;4938705;29;20044;-85
2023/09/22 04:17:50;;;;;;;27.23;11.93;;;24.00;99.90;;;;;;4938860;29;20039;-85
2023/09/22 04:20:26;;;;;;;27.35;11.30;;;24.00;99.90;;;;;;4938415;29;20052;-86
2023/09/22 04:22:53;;;;;;;27.88;11.50;;;23.90;99.90;;;;;;4938795;29;20502;-86
2023/09/22 04:25:29;;;;;;;31.88;11.55;;;23.90;99.90;;;;;;4938476;29;20074;-85
2023/09/22 04:27:57;;;;;;;31.25;11.57;;;23.90;99.90;;;;;;4938804;29;20035;-85
2023/09/22 04:30:25;;;;;;;32.50;10.80;;;24.00;99.90;;;;;;4937913;29;20048;-86
2023/09/22 04:32:53;;;;;;;28.13;11.13;;;23.90;99.90;;;;;;4922922;29;20401;-85
2023/09/22 04:35:20;;;;;;;28.35;11.63;;;24.00;99.90;;;;;;4922426;29;20024;-86
2023/09/22 04:37:47;;;;;;;35.22;12.88;;;24.00;99.90;;;;;;4922722;29;20042;-85
2023/09/22 04:40:56;;;;;;;21.27;10.90;;;23.90;99.90;;;;;;4922037;29;20067;-87
2023/09/22 04:43:07;;;;;;;25.45;10.85;;;24.00;99.90;;;;;;4935653;29;20046;-87
2023/09/22 04:45:40;;;;;;;24.90;11.55;;;23.90;99.90;;;;;;4922417;29;20123;-86
2023/09/22 04:48:08;;;;;;;31.02;10.70;;;23.90;99.90;;;;;;4922138;29;20103;-86
2023/09/22 04:50:36;;;;;;;32.50;11.00;;;24.00;99.90;;;;;;4922478;29;20028;-85
2023/09/22 04:53:09;;;;;;;31.55;11.68;;;24.00;99.90;;;;;;4922195;29;20118;-89
2023/09/22 04:55:43;;;;;;;33.42;11.07;;;24.00;99.90;;;;;;4922267;29;20024;-88
2023/09/22 04:58:14;;;;;;;30.05;10.27;;;24.10;99.90;;;;;;4937931;29;20131;-87
2023/09/22 05:00:41;;;;;;;24.50;11.38;;;24.10;99.90;;;;;;4938007;29;20489;-85
2023/09/22 05:03:08;;;;;;;25.05;10.75;;;24.20;99.90;;;;;;4937810;29;20027;-84
2023/09/22 05:05:53;;;;;;;32.60;10.85;;;24.20;99.90;;;;;;4921747;29;20028;-87
2023/09/22 05:08:20;;;;;;;22.00;10.38;;;24.20;99.90;;;;;;4938249;29;20027;-87
2023/09/22 05:10:59;;;;;;;28.33;10.52;;;24.30;99.90;;;;;;4922386;29;20028;-86
2023/09/22 05:13:34;;;;;;;29.17;11.43;;;24.30;99.90;;;;;;4923374;29;20035;-84
2023/09/22 05:16:13;;;;;;;26.90;11.57;;;24.40;99.90;;;;;;4937399;29;20102;-86
2023/09/22 05:18:40;;;;;;;24.50;11.82;;;24.50;99.90;;;;;;4938043;29;20031;-84
2023/09/22 05:21:09;;;;;;;16.48;11.48;;;24.50;99.90;;;;;;4921461;29;20032;-83
2023/09/22 05:23:36;;;;;;;24.83;11.85;;;24.60;99.90;;;;;;4937214;29;20028;-83
2023/09/22 05:26:13;;;;;;;28.30;12.52;;;24.70;99.90;;;;;;4937181;29;20114;-86
2023/09/22 05:28:42;;;;;;;21.83;12.00;;;24.80;99.90;;;;;;4937022;29;20023;-86
2023/09/22 05:31:10;;;;;;;25.33;12.77;;;25.00;99.90;;;;;;4921689;29;20051;-85
2023/09/22 05:33:40;;;;;;;25.50;13.05;;;25.10;99.90;;;;;;4938365;29;20393;-86
2023/09/22 05:36:23;;;;;;;25.92;14.43;;;25.40;99.90;;;;;;4921631;29;20028;-88
2023/09/22 05:39:00;;;;;;;30.50;14.77;;;25.40;99.90;;;;;;4921995;29;20124;-88
2023/09/22 05:41:35;;;;;;;28.35;14.15;;;25.70;99.90;;;;;;4922566;29;20516;-88
2023/09/22 05:44:20;;;;;;;24.42;16.10;;;25.90;99.90;;;;;;4921542;29;20505;-90
2023/09/22 05:47:01;;;;;;;21.88;15.90;;;26.10;99.90;;;;;;4921236;29;20040;-87
2023/09/22 05:49:44;;;;;;;32.25;17.58;;;26.50;99.90;;;;;;4921873;29;20034;-88
2023/09/22 05:52:12;;;;;;;24.05;17.45;;;26.90;99.90;;;;;;4921087;29;20031;-87
2023/09/22 05:54:53;;;;;;;32.50;19.02;;;27.20;99.90;;;;;;4920985;29;20111;-89
2023/09/22 05:57:25;;;;;;;28.77;19.67;;;27.60;99.90;;;;;;4922281;29;20128;-88
2023/09/22 05:59:53;;;;;;;32.60;21.40;;;27.90;99.90;;;;;;4920870;29;20095;-89
2023/09/22 06:02:53;;;;;;;28.33;20.30;;;28.30;99.90;;;;;;4917710;29;20032;-89
2023/09/22 06:05:46;;;;;;;33.05;21.20;;;27.90;99.90;;;;;;4917952;29;20096;-89
2023/09/22 06:08:50;;;;;;;27.63;22.02;;;28.20;99.90;;;;;;4930797;29;20099;-89
2023/09/22 06:11:18;;;;;;;32.10;22.27;;;28.10;99.90;;;;;;4932656;29;20052;-89
2023/09/22 06:13:47;;;;;;;25.30;22.42;;;28.50;99.90;;;;;;4917794;29;20059;-90
2023/09/22 06:16:25;;;;;;;27.88;21.30;;;29.00;99.90;;;;;;4917433;29;20087;-89
2023/09/22 06:18:53;;;;;;;24.02;20.10;;;29.10;99.90;;;;;;4917560;29;20095;-90
2023/09/22 06:21:21;;;;;;;26.50;20.90;;;29.40;99.90;;;;;;4917362;29;20155;-90
2023/09/22 06:24:01;;;;;;;23.55;21.27;;;29.10;99.90;;;;;;4917426;29;20107;-90
2023/09/22 06:26:43;;;;;;;27.52;21.98;;;29.00;99.90;;;;;;4917414;29;20032;-89
2023/09/22 06:29:24;;;;;;;27.38;23.08;;;29.20;99.90;;;;;;4916787;29;20040;-89
2023/09/22 06:31:50;;;;;;;26.85;23.52;;;29.40;99.90;;;;;;4917303;29;20123;-89
2023/09/22 06:34:17;;;;;;;31.40;23.63;;;29.30;99.90;;;;;;4917180;29;20039;-89
2023/09/22 06:36:53;;;;;;;33.47;23.48;;;29.60;99.90;;;;;;4933087;29;20036;-89
2023/09/22 06:39:44;;;;;;;41.10;23.77;;;29.60;99.90;;;;;;4928423;29;20048;-91
2023/09/22 06:42:10;;;;;;;31.02;23.38;;;29.50;99.90;;;;;;4917127;29;20039;-89
2023/09/22 06:45:02;;;;;;;31.90;23.52;;;29.80;99.90;;;;;;4917280;29;20043;-89
2023/09/22 06:47:48;;;;;;;29.50;24.02;;;29.80;99.90;;;;;;4933003;29;20035;-90
2023/09/22 06:50:21;;;;;;;31.70;23.42;;;30.10;99.90;;;;;;4919038;29;20029;-90
2023/09/22 06:53:21;;;;;;;;;;;29.80;99.90;;;;;;4922279;29;20053;-90
2023/09/22 06:56:22;;;;;;;33.47;25.27;;;29.90;99.90;;;;;;4936406;29;19911;-89
2023/09/22 06:59:16;;;;;;;35.22;24.20;;;30.40;99.90;;;;;;4936025;29;20031;-89
2023/09/22 07:01:49;;;;;;;;;;;30.40;99.90;;;;;;4936231;29;20039;-89
2023/09/22 07:04:21;;;;;;;27.40;24.55;;;30.00;99.90;;;;;;4936063;29;19911;-90
2023/09/22 07:06:48;;;;;;;33.78;24.95;;;30.20;99.90;;;;;;4916005;29;20023;-89
2023/09/22 07:09:16;;;;;;;36.75;26.80;;;30.40;99.90;;;;;;4935916;29;20533;-90
2023/09/22 07:11:55;;;;;;;33.55;24.90;;;30.30;99.90;;;;;;4919987;29;20126;-90
2023/09/22 07:14:23;;;;;;;34.38;24.73;;;30.10;99.90;;;;;;4919927;29;20039;-90
2023/09/22 07:16:50;;;;;;;35.38;25.77;;;30.40;99.90;;;;;;4935767;29;20023;-90
2023/09/22 07:19:17;;;;;;;29.45;24.40;;;30.10;99.90;;;;;;4935744;29;20065;-90
2023/09/22 07:22:05;;;;;;;32.67;25.15;;;29.90;99.90;;;;;;4937417;29;20020;-89
2023/09/22 07:25:03;;;;;;;39.17;26.13;;;30.00;99.90;;;;;;4920810;29;20115;-90
2023/09/22 07:27:33;;;;;;;32.70;24.60;;;30.20;99.90;;;;;;4904611;29;20154;-90
2023/09/22 07:29:59;;;;;;;36.83;26.50;;;30.10;99.90;;;;;;4904517;29;20044;-90
2023/09/22 07:32:27;;;;;;;29.52;24.60;;;30.50;99.90;;;;;;4904611;29;20048;-90
2023/09/22 07:34:57;;;;;;;26.73;24.08;;;30.90;99.90;;;;;;4924840;29;20122;-90
2023/09/22 07:37:30;;;;;;;30.48;24.20;;;30.90;99.90;;;;;;4920271;29;20630;-89
2023/09/22 07:40:16;;;;;;;63.25;27.95;;;30.60;99.90;;;;;;4920187;29;20497;-90
2023/09/22 07:42:52;;;;;;;29.38;26.25;;;30.70;99.90;;;;;;4906049;29;20032;-89
2023/09/22 07:45:19;;;;;;;31.15;25.95;;;31.20;99.90;;;;;;4904568;29;20032;-89
2023/09/22 07:47:46;;;;;;;55.80;27.00;;;31.10;99.90;;;;;;4904338;29;20047;-89
2023/09/22 07:50:13;;;;;;;43.50;26.08;;;31.30;99.90;;;;;;4904458;29;20036;-90
2023/09/22 07:52:53;;;;;;;35.53;27.10;;;31.10;99.90;;;;;;4907368;29;20024;-90
2023/09/22 07:55:42;;;;;;;33.17;26.98;;;31.60;99.90;;;;;;4939108;29;20445;-89
2023/09/22 07:58:40;;;;;;;29.83;26.00;;;31.40;99.90;;;;;;4939244;29;20541;-89
2023/09/22 08:01:15;;;;;;;54.03;29.52;;;31.40;99.90;;;;;;4939123;29;20039;-90
2023/09/22 08:03:45;;;;;;;41.72;27.30;;;31.30;99.90;;;;;;4927620;29;20482;-89
2023/09/22 08:06:13;;;;;;;31.50;27.70;;;31.50;99.90;;;;;;4919688;29;20028;-90
2023/09/22 08:08:39;;;;;;;30.45;27.00;;;31.70;99.90;;;;;;4920606;29;20036;-89
2023/09/22 08:11:06;;;;;;;32.08;27.25;;;31.90;99.90;;;;;;4928588;29;20030;-89
2023/09/22 08:13:39;;;;;;;37.70;28.90;;;31.80;99.90;;;;;;4925433;29;20078;-90
2023/09/22 08:16:07;;;;;;;46.05;29.33;;;32.00;99.90;;;;;;4922171;29;20113;-90
2023/09/22 08:18:40;;;;;;;112.30;31.90;;;32.00;99.90;;;;;;4938524;29;20512;-89
2023/09/22 08:21:22;;;;;;;30.15;27.05;;;31.70;99.90;;;;;;4923826;29;20040;-89
2023/09/22 08:24:05;;;;;;;30.48;27.30;;;31.50;99.90;;;;;;4924804;29;20031;-89
2023/09/22 08:26:31;;;;;;;31.98;26.38;;;31.60;99.90;;;;;;4911928;29;20043;-89
2023/09/22 08:29:32;;;;;;;75.63;32.00;;;31.80;99.90;;;;;;4919070;29;20032;-89
2023/09/22 08:32:17;;;;;;;31.42;27.88;;;32.30;99.90;;;;;;4905603;29;20039;-90
2023/09/22 08:35:06;;;;;;;32.20;28.77;;;32.40;99.90;;;;;;4902592;29;20028;-90
2023/09/22 08:37:54;;;;;;;41.05;29.42;;;32.50;99.90;;;;;;4920467;29;20111;-89
2023/09/22 08:40:30;;;;;;;37.65;29.48;;;32.50;99.90;;;;;;4906362;29;20428;-89
2023/09/22 08:43:02;;;;;;;39.38;28.85;;;32.40;99.90;;;;;;4903692;29;20072;-89
2023/09/22 08:45:40;;;;;;;35.40;28.35;;;32.30;99.90;;;;;;4903332;29;20123;-89
2023/09/22 08:48:28;;;;;;;45.53;29.40;;;32.00;99.90;;;;;;4904268;29;20039;-89
2023/09/22 08:51:12;;;;;;;32.17;28.85;;;32.20;99.90;;;;;;4893775;29;20451;-89
2023/09/22 08:53:58;;;;;;;31.55;27.13;;;31.90;99.90;;;;;;4900128;29;20123;-89
2023/09/22 08:57:07;;;;;;;36.75;26.80;;;31.60;99.90;;;;;;4900287;29;20486;-90
2023/09/22 08:59:34;;;;;;;37.30;27.35;;;31.20;99.90;;;;;;4900109;29;20044;-90
2023/09/22 09:02:08;;;;;;;38.05;27.08;;;31.00;99.90;;;;;;4884454;29;20025;-90
2023/09/22 09:04:49;;;;;;;30.13;26.13;;;31.10;99.90;;;;;;4899930;29;20607;-90
2023/09/22 09:07:23;;;;;;;30.83;26.20;;;31.40;99.90;;;;;;4899860;29;20029;-90
2023/09/22 09:09:55;;;;;;;36.70;26.83;;;31.40;99.90;;;;;;4905259;29;20039;-89
2023/09/22 09:12:24;;;;;;;29.70;25.77;;;31.20;99.90;;;;;;4899840;29;20061;-90
2023/09/22 09:14:58;;;;;;;31.77;25.95;;;31.30;99.90;;;;;;4899982;29;20119;-89
2023/09/22 09:17:42;;;;;;;41.78;27.25;;;31.20;99.90;;;;;;4900224;29;20478;-89
2023/09/22 09:20:16;;;;;;;30.10;26.88;;;31.20;99.90;;;;;;4905755;29;20044;-90
2023/09/22 09:22:47;;;;;;;32.28;26.13;;;31.00;99.90;;;;;;4902854;29;20028;-89
2023/09/22 09:25:40;;;;;;;34.72;27.23;;;31.20;99.90;;;;;;4902789;29;20111;-89
2023/09/22 09:28:17;;;;;;;40.63;28.17;;;31.40;99.90;;;;;;4903676;29;20035;-90
2023/09/22 09:31:32;;;;;;;31.02;27.70;;;31.70;99.90;;;;;;4894185;29;20487;-89
2023/09/22 09:34:25;;;;;;;39.47;26.88;;;31.50;99.90;;;;;;4918684;29;20138;-89
2023/09/22 09:37:34;;;;;;;36.95;26.98;;;31.40;99.90;;;;;;4918948;29;20043;-89
2023/09/22 09:40:30;;;;;;;30.25;26.80;;;31.30;99.90;;;;;;4918462;29;20047;-89
2023/09/22 09:43:20;;;;;;;35.05;27.48;;;31.70;99.90;;;;;;4918489;29;20084;-90
2023/09/22 09:46:02;;;;;;;32.85;27.48;;;31.90;99.90;;;;;;4918018;29;20032;-89
2023/09/22 09:48:48;;;;;;;31.05;27.67;;;32.20;99.90;;;;;;4919034;29;20060;-89
2023/09/22 09:51:48;;;;;;;33.10;28.08;;;32.40;99.90;;;;;;4930500;29;20036;-89
2023/09/22 09:54:49;;;;;;;32.47;27.88;;;32.10;99.90;;;;;;4918322;29;20039;-90
2023/09/22 09:57:57;;;;;;;31.63;28.00;;;32.30;99.90;;;;;;4918100;29;20039;-89
2023/09/22 10:01:13;;;;;;;30.52;27.35;;;32.30;99.90;;;;;;4935086;29;20099;-89
2023/09/22 10:03:54;;;;;;;35.05;27.50;;;31.90;99.90;;;;;;4921015;29;20036;-90
2023/09/22 10:06:25;;;;;;;36.65;26.95;;;32.30;99.90;;;;;;4921436;29;20066;-89
2023/09/22 10:08:56;;;;;;;36.40;27.15;;;32.40;99.90;;;;;;4921612;29;20094;-89
2023/09/22 10:11:23;;;;;;;31.65;28.15;;;32.40;99.90;;;;;;4936669;29;20031;-90
2023/09/22 10:13:52;;;;;;;37.45;28.05;;;32.10;99.90;;;;;;4920916;29;20035;-89
2023/09/22 10:16:32;;;;;;;33.22;28.00;;;32.40;99.90;;;;;;4936421;29;20106;-89
2023/09/22 10:20:19;;;;;;;32.88;27.52;;;32.30;99.90;;;;;;4922085;29;20056;-90
2023/09/22 10:23:27;;;;;;;36.60;28.48;;;32.40;99.90;;;;;;4922013;29;20059;-90
2023/09/22 10:26:21;;;;;;;35.70;27.95;;;32.30;99.90;;;;;;4929524;29;20048;-89
2023/09/22 10:28:48;;;;;;;36.97;28.10;;;32.40;99.90;;;;;;4934891;29;20040;-90
2023/09/22 10:31:49;;;;;;;34.78;27.92;;;32.30;99.90;;;;;;4923203;29;20135;-89
2023/09/22 10:34:49;;;;;;;35.17;28.63;;;32.10;99.90;;;;;;4918730;29;20031;-89
2023/09/22 10:37:20;;;;;;;35.95;29.00;;;32.40;99.90;;;;;;4920533;29;20031;-90
2023/09/22 10:39:58;;;;;;;35.35;28.52;;;32.50;99.90;;;;;;4920324;29;20039;-89
2023/09/22 10:42:27;;;;;;;32.80;28.67;;;32.60;99.90;;;;;;4933488;29;20039;-89
2023/09/22 10:45:07;;;;;;;38.92;28.17;;;32.70;99.90;;;;;;4901724;29;20032;-89
2023/09/22 10:47:46;;;;;;;38.63;29.70;;;32.50;99.90;;;;;;4919051;29;20024;-85
2023/09/22 10:50:12;;;;;;;37.20;28.75;;;32.30;99.90;;;;;;4917051;29;20036;-86
2023/09/22 10:52:53;;;;;;;39.88;28.08;;;32.40;99.90;;;;;;4933377;29;20082;-85
2023/09/22 10:55:28;;;;;;;35.13;28.35;;;32.40;99.90;;;;;;4934734;29;20445;-85
2023/09/22 10:57:55;;;;;;;38.00;28.35;;;32.20;99.90;;;;;;4918681;29;20123;-82
2023/09/22 11:00:23;;;;;;;41.95;28.08;;;32.30;99.90;;;;;;4935370;29;20071;-82
2023/09/22 11:02:54;;;;;;;42.20;28.60;;;32.30;99.90;;;;;;4934730;29;20107;-81
2023/09/22 11:05:27;;;;;;;35.92;28.20;;;32.20;99.90;;;;;;4919148;29;20398;-81
2023/09/22 11:08:00;;;;;;;41.05;28.52;;;32.00;99.90;;;;;;4935738;29;20027;-82
2023/09/22 11:10:37;;;;;;;35.03;27.45;;;32.10;99.90;;;;;;4934753;29;20028;-80
2023/09/22 11:13:14;;;;;;;40.28;28.30;;;32.00;99.90;;;;;;4916729;29;20062;-82
2023/09/22 11:15:59;;;;;;;35.90;27.85;;;32.00;99.90;;;;;;4899619;29;20056;-83
2023/09/22 11:18:35;;;;;;;33.10;28.25;;;31.90;99.90;;;;;;4915359;29;20068;-80
2023/09/22 11:21:12;;;;;;;39.10;26.70;;;32.00;99.90;;;;;;4915899;29;20070;-81
2023/09/22 11:23:46;;;;;;;38.17;26.95;;;31.40;99.90;;;;;;4934671;29;20059;-87
2023/09/22 11:26:25;;;;;;;38.75;27.02;;;31.30;99.90;;;;;;4919416;29;20038;-87
2023/09/22 11:29:01;;;;;;;39.92;26.52;;;31.10;99.90;;;;;;4919394;29;20031;-87
2023/09/22 11:31:32;;;;;;;39.85;28.25;;;31.40;99.90;;;;;;4919172;29;20052;-88
2023/09/22 11:34:04;;;;;;;36.10;27.23;;;31.40;99.90;;;;;;4916199;29;20028;-86
2023/09/22 11:36:52;;;;;;;28.83;25.73;;;31.40;99.90;;;;;;4916799;29;20088;-85
2023/09/22 11:39:34;;;;;;;37.88;26.20;;;31.00;99.90;;;;;;4933069;29;20044;-86
2023/09/22 11:42:04;;;;;;;36.55;26.58;;;31.30;99.90;;;;;;4919868;29;20036;-85
2023/09/22 11:44:30;;;;;;;36.90;27.55;;;31.10;99.90;;;;;;4932246;29;20450;-86
2023/09/22 11:46:57;;;;;;;35.35;26.42;;;31.00;99.90;;;;;;4921436;29;20110;-86
2023/09/22 11:49:36;;;;;;;38.83;27.23;;;30.90;99.90;;;;;;4934605;29;20031;-85
2023/09/22 11:52:10;;;;;;;34.47;27.83;;;31.20;99.90;;;;;;4919530;29;20028;-86
2023/09/22 11:54:36;;;;;;;29.15;26.15;;;31.30;99.90;;;;;;4918180;29;20032;-86
2023/09/22 11:57:03;;;;;;;42.20;26.95;;;31.40;99.90;;;;;;4935105;29;20032;-87
2023/09/22 11:59:42;;;;;;;39.10;26.25;;;31.40;99.90;;;;;;4907324;29;20043;-85
2023/09/22 12:02:16;;;;;;;40.35;26.95;;;30.80;99.90;;;;;;4928209;29;20038;-87
2023/09/22 12:04:49;;;;;;;50.03;26.27;;;31.00;99.90;;;;;;4934997;29;20078;-86
2023/09/22 12:07:22;;;;;;;37.08;27.13;;;31.20;99.90;;;;;;4918588;29;20039;-87
2023/09/22 12:09:56;;;;;;;30.48;26.67;;;31.20;99.90;;;;;;4903639;29;20561;-84
2023/09/22 12:12:22;;;;;;;29.48;26.42;;;31.30;99.90;;;;;;4919824;29;20055;-88
2023/09/22 12:14:49;;;;;;;36.20;27.13;;;31.40;99.90;;;;;;4919960;29;20040;-89
2023/09/22 12:17:15;;;;;;;33.25;27.05;;;31.20;99.90;;;;;;4919674;29;20043;-86
2023/09/22 12:19:42;;;;;;;38.97;26.95;;;31.30;99.90;;;;;;4903925;29;20039;-86
2023/09/22 12:22:11;;;;;;;29.67;25.77;;;31.10;99.90;;;;;;4930657;29;20058;-87
2023/09/22 12:24:37;;;;;;;36.35;26.55;;;31.10;99.90;;;;;;4922094;29;20114;-85
2023/09/22 12:27:04;;;;;;;40.30;29.95;;;31.30;99.90;;;;;;4938526;29;20028;-84
2023/09/22 12:29:31;;;;;;;33.70;29.88;;;30.70;99.90;;;;;;4937618;29;20030;-86
2023/09/22 12:31:59;;;;;;;34.35;28.73;;;30.60;99.90;;;;;;4921718;29;20503;-84
2023/09/22 12:34:27;;;;;;;39.33;28.45;;;30.50;99.90;;;;;;4937475;29;20122;-81
2023/09/22 12:36:54;;;;;;;45.10;29.02;;;30.30;99.90;;;;;;4938208;29;20059;-83
2023/09/22 12:39:21;;;;;;;33.33;27.75;;;30.30;99.90;;;;;;4936408;29;20362;-81
2023/09/22 12:41:48;;;;;;;31.48;28.20;;;30.50;99.90;;;;;;4932061;29;20037;-85
2023/09/22 12:44:14;;;;;;;31.15;27.48;;;30.80;99.90;;;;;;4921118;29;20476;-86
2023/09/22 12:46:41;;;;;;;37.47;29.10;;;30.80;99.90;;;;;;4921260;29;20494;-85
2023/09/22 12:49:09;;;;;;;37.53;28.40;;;30.90;99.90;;;;;;4921657;29;20027;-85
2023/09/22 12:51:35;;;;;;;35.88;28.25;;;30.80;99.90;;;;;;4918084;29;20024;-86
2023/09/22 12:54:02;;;;;;;40.72;28.75;;;30.70;99.90;;;;;;4904340;29;20482;-86
2023/09/22 12:56:28;;;;;;;33.88;28.38;;;30.80;99.90;;;;;;4918267;29;20032;-85
2023/09/22 12:58:58;;;;;;;35.83;28.42;;;30.60;99.90;;;;;;4925835;29;20058;-83
2023/09/22 13:01:24;;;;;;;39.45;28.85;;;30.80;99.90;;;;;;4936274;29;20485;-85
2023/09/22 13:03:51;;;;;;;33.00;28.50;;;30.80;99.90;;;;;;4936833;29;20031;-87